Time;durP1;ratioP1;P1;durP2;ratioP2;P2;SDS_P1;SDS_P2;PMS_P1;PMS_P2;Temp;Humidity;BMP_temperature;BMP_pressure;BME280_temperature;BME280_humidity;BME280_pressure;Samples;Min_cycle;Max_cycle;Signal;HPM_P1;HPM_P2
2021/11/02 00:01:12;;;;;;;28.90;25.98;;;;;;;27.86;17.57;93869.16;5015338;28;20058;-46
2021/11/02 00:03:39;;;;;;;33.53;28.88;;;;;;;27.84;17.10;93868.78;5010527;28;20050;-58
2021/11/02 00:06:06;;;;;;;31.67;28.15;;;;;;;27.80;17.42;93855.41;4996536;28;20053;-45
2021/11/02 00:08:34;;;;;;;32.90;27.10;;;;;;;27.98;17.35;93860.50;4996260;28;20038;-45
2021/11/02 00:11:01;;;;;;;30.83;26.17;;;;;;;28.06;17.48;93864.56;5005729;28;20330;-47
2021/11/02 00:13:34;;;;;;;28.92;25.48;;;;;;;27.94;17.43;93862.50;5015071;28;20049;-51
2021/11/02 00:16:19;;;;;;;26.17;23.35;;;;;;;30.41;15.49;93875.13;5010489;28;20050;-57
2021/11/02 00:18:56;;;;;;;27.63;24.45;;;;;;;30.17;15.00;93869.94;5014728;28;20049;-46
2021/11/02 00:21:23;;;;;;;28.50;25.45;;;;;;;28.32;16.24;93860.31;5014196;28;20061;-46
2021/11/02 00:23:57;;;;;;;27.63;24.88;;;;;;;27.69;16.95;93867.50;5011174;28;20038;-50
2021/11/02 00:26:24;;;;;;;27.88;24.92;;;;;;;26.97;17.34;93860.34;4996188;28;20053;-45
2021/11/02 00:28:51;;;;;;;27.38;24.58;;;;;;;26.54;17.54;93867.34;4998352;28;20046;-45
2021/11/02 00:31:19;;;;;;;29.23;26.23;;;;;;;26.30;18.07;93845.00;5010742;28;20479;-48
2021/11/02 00:33:46;;;;;;;29.25;26.23;;;;;;;26.28;18.17;93860.69;4995607;28;20046;-46
2021/11/02 00:36:13;;;;;;;29.73;26.52;;;;;;;25.79;18.91;93858.09;4995175;28;20441;-45
2021/11/02 00:38:40;;;;;;;29.85;26.65;;;;;;;26.02;18.47;93859.41;4994431;28;20050;-45
2021/11/02 00:41:08;;;;;;;30.70;27.38;;;;;;;25.88;18.48;93848.84;5004196;28;20041;-45
2021/11/02 00:43:36;;;;;;;30.35;27.05;;;;;;;25.88;18.85;93848.84;4996787;28;20046;-46
2021/11/02 00:46:04;;;;;;;30.58;27.50;;;;;;;25.93;19.06;93840.38;4996277;28;20050;-53
2021/11/02 00:48:31;;;;;;;32.42;26.48;;;;;;;25.95;19.04;93848.75;5011497;28;20045;-45
2021/11/02 00:50:58;;;;;;;29.30;26.15;;;;;;;25.55;19.34;93837.59;5010456;28;20060;-45
2021/11/02 00:53:27;;;;;;;29.55;25.92;;;;;;;25.54;19.03;93836.06;5009910;28;20041;-45
2021/11/02 00:55:54;;;;;;;31.15;26.30;;;;;;;25.51;19.01;93834.94;5010962;28;20052;-58
2021/11/02 00:58:22;;;;;;;28.50;25.55;;;;;;;25.36;19.18;93848.78;4994809;28;20062;-52
2021/11/02 01:00:49;;;;;;;30.42;27.30;;;;;;;25.74;18.98;93849.69;5014796;28;20368;-46
2021/11/02 01:03:17;;;;;;;31.00;26.15;;;;;;;25.39;19.04;93850.69;5015311;28;20050;-46
2021/11/02 01:05:44;;;;;;;31.30;27.42;;;;;;;25.35;19.14;93841.94;5015378;28;20042;-52
2021/11/02 01:08:13;;;;;;;28.52;25.60;;;;;;;25.39;19.53;93851.44;5014268;28;20460;-45
2021/11/02 01:10:46;;;;;;;29.33;26.23;;;;;;;25.63;19.16;93849.75;5014684;28;20368;-55
2021/11/02 01:13:17;;;;;;;28.38;25.48;;;;;;;25.47;19.46;93855.59;5015373;28;20056;-52
2021/11/02 01:15:44;;;;;;;29.30;26.00;;;;;;;25.49;19.68;93855.19;5015167;28;20072;-49
2021/11/02 01:18:11;;;;;;;29.50;26.40;;;;;;;25.39;19.96;93856.03;5014430;28;20049;-45
2021/11/02 01:20:40;;;;;;;29.48;26.45;;;;;;;25.50;19.84;93846.81;5014428;28;20048;-45
2021/11/02 01:23:07;;;;;;;31.77;26.67;;;;;;;25.64;19.81;93837.91;5013919;28;20396;-50
2021/11/02 01:25:38;;;;;;;30.20;26.92;;;;;;;25.31;20.35;93849.22;5013655;28;20046;-45
2021/11/02 01:28:06;;;;;;;29.63;25.30;;;;;;;25.31;20.21;93841.19;5013039;28;20049;-49
2021/11/02 01:30:39;;;;;;;28.85;25.70;;;;;;;25.42;20.22;93833.84;5013078;28;20376;-46
2021/11/02 01:33:06;;;;;;;29.38;26.35;;;;;;;25.34;20.45;93838.50;5013713;28;20064;-52
2021/11/02 01:35:35;;;;;;;29.05;26.05;;;;;;;25.37;20.38;93823.56;5013711;28;20452;-46
2021/11/02 01:38:06;;;;;;;28.25;25.38;;;;;;;25.38;20.47;93825.09;5013097;28;20049;-46
2021/11/02 01:40:33;;;;;;;27.60;24.67;;;;;;;25.60;20.31;93812.31;5012757;28;20057;-45
2021/11/02 01:43:01;;;;;;;26.90;24.38;;;;;;;25.72;20.22;93814.53;5012772;28;20049;-45
2021/11/02 01:45:29;;;;;;;28.92;26.08;;;;;;;25.19;20.65;93816.41;5014058;28;20057;-52
2021/11/02 01:48:01;;;;;;;30.67;27.55;;;;;;;25.58;20.37;93809.28;5012526;28;20052;-54
2021/11/02 01:50:40;;;;;;;31.23;27.90;;;;;;;25.32;20.48;93813.28;5013025;28;20050;-55
2021/11/02 01:53:08;;;;;;;31.48;28.25;;;;;;;25.21;20.52;93802.63;4996450;28;20443;-55
2021/11/02 01:55:35;;;;;;;32.85;29.65;;;;;;;25.13;20.63;93801.94;5006848;28;20358;-54
2021/11/02 01:58:03;;;;;;;32.40;29.05;;;;;;;25.38;20.38;93795.66;4994491;28;20445;-48
2021/11/02 02:00:33;;;;;;;32.38;28.45;;;;;;;25.00;20.90;93802.78;5012376;28;20058;-52
2021/11/02 02:03:15;;;;;;;31.08;27.90;;;;;;;25.13;20.46;93796.59;4997926;28;20456;-45
2021/11/02 02:06:08;;;;;;;30.77;27.63;;;;;;;25.59;20.24;93797.41;5013129;28;20056;-51
2021/11/02 02:09:04;;;;;;;30.92;27.50;;;;;;;25.10;20.64;93797.38;5012985;28;20068;-46
2021/11/02 02:12:02;;;;;;;32.25;28.88;;;;;;;25.09;20.82;93782.47;5012658;28;20057;-46
2021/11/02 02:15:11;;;;;;;31.88;28.55;;;;;;;25.14;20.65;93768.69;4996926;28;20041;-46
2021/11/02 02:17:53;;;;;;;32.17;28.88;;;;;;;24.77;21.24;93758.59;5012257;28;20050;-45
2021/11/02 02:20:46;;;;;;;31.88;28.75;;;;;;;24.87;21.02;93770.34;4995936;28;20053;-51
2021/11/02 02:23:39;;;;;;;33.50;29.70;;;;;;;24.81;21.28;93782.63;5013852;28;20380;-45
2021/11/02 02:26:25;;;;;;;32.25;28.95;;;;;;;24.85;21.34;93780.69;5013053;28;20049;-45
2021/11/02 02:28:57;;;;;;;32.72;29.30;;;;;;;25.55;20.43;93776.03;5012945;28;20061;-55
2021/11/02 02:31:28;;;;;;;30.80;27.75;;;;;;;25.19;20.88;93757.56;4996935;28;20065;-49
2021/11/02 02:33:59;;;;;;;31.42;28.30;;;;;;;25.10;21.17;93749.25;5012975;28;20050;-52
2021/11/02 02:36:41;;;;;;;30.85;27.65;;;;;;;24.77;21.67;93752.47;4998287;28;20046;-45
2021/11/02 02:39:13;;;;;;;31.15;27.73;;;;;;;24.88;21.30;93743.25;4996651;28;20054;-57
2021/11/02 02:41:46;;;;;;;32.03;28.85;;;;;;;24.97;21.42;93740.13;5012358;28;20061;-46
2021/11/02 02:44:16;;;;;;;34.08;30.55;;;;;;;24.96;21.24;93738.59;5012683;28;20053;-49
2021/11/02 02:46:44;;;;;;;33.55;30.08;;;;;;;24.77;21.58;93745.22;4996524;28;20049;-46
2021/11/02 02:49:13;;;;;;;32.40;29.13;;;;;;;25.21;20.94;93744.56;5012633;28;20380;-45
2021/11/02 02:51:44;;;;;;;31.55;28.15;;;;;;;24.96;21.24;93743.94;4996073;28;20061;-53
2021/11/02 02:54:13;;;;;;;;;;;;;;;25.06;21.22;93737.81;5013052;28;20429;-45
2021/11/02 02:56:46;;;;;;;32.58;29.17;;;;;;;24.96;21.54;93738.59;5013388;28;20327;-45
2021/11/02 02:59:15;;;;;;;31.42;28.20;;;;;;;24.97;21.46;93737.44;5015593;28;20056;-45
2021/11/02 03:01:44;;;;;;;31.98;28.88;;;;;;;25.17;21.39;93759.13;5015985;28;20057;-45
2021/11/02 03:04:16;;;;;;;30.50;27.52;;;;;;;25.25;21.51;93749.16;5016320;28;20053;-46
2021/11/02 03:06:46;;;;;;;31.23;28.10;;;;;;;25.25;21.55;93749.16;5016307;28;20475;-52
2021/11/02 03:09:19;;;;;;;31.50;27.45;;;;;;;25.04;21.67;93745.47;5000696;28;20057;-45
2021/11/02 03:11:46;;;;;;;32.95;28.42;;;;;;;24.86;21.85;93729.50;4998645;28;20046;-45
2021/11/02 03:14:45;;;;;;;32.42;29.02;;;;;;;24.99;21.79;93716.47;4999839;28;20041;-46
2021/11/02 03:17:13;;;;;;;32.47;29.08;;;;;;;25.24;21.59;93718.19;5015155;28;20050;-58
2021/11/02 03:58:45;;;;;;;30.10;27.10;;;;;;;25.63;20.79;93657.06;4997799;28;20099;-45
2021/11/02 04:24:32;;;;;;;27.55;24.85;;;;;;;25.56;20.90;93654.47;5001309;28;20043;-46
2021/11/02 05:50:08;;;;;;;30.15;24.85;;;;;;;31.10;16.68;93608.41;4999721;28;20049;-43
2021/11/02 05:55:19;;;;;;;28.10;24.65;;;;;;;32.23;15.67;93628.09;4994795;28;20357;-51
2021/11/02 06:00:31;;;;;;;22.90;20.50;;;;;;;32.20;15.92;93624.31;5011529;28;20108;-47
2021/11/02 06:08:26;;;;;;;23.75;21.45;;;;;;;32.56;16.12;93616.88;5010267;28;20080;-47
2021/11/02 06:11:16;;;;;;;21.65;19.45;;;;;;;33.62;15.85;93623.47;5002936;28;20053;-49
2021/11/02 06:28:04;;;;;;;30.92;27.73;;;;;;;28.35;19.53;93622.22;5001123;28;20057;-47
2021/11/02 06:30:52;;;;;;;32.92;28.88;;;;;;;28.37;19.75;93625.28;4999290;28;20050;-48
2021/11/02 06:44:16;;;;;;;31.67;28.35;;;;;;;28.10;20.28;93614.66;5017650;28;20490;-48
2021/11/02 06:52:49;;;;;;;29.20;26.10;;;;;;;27.65;21.05;93615.19;5016434;28;20052;-48
2021/11/02 07:20:34;;;;;;;30.73;27.42;;;;;;;27.86;20.77;93614.03;5016911;28;20080;-50
2021/11/02 07:26:11;;;;;;;28.98;25.98;;;;;;;27.59;20.93;93622.94;5016116;28;20049;-48
2021/11/02 08:47:29;;;;;;;29.83;26.75;;;;;;;27.55;22.41;93622.22;5015533;28;20056;-50
2021/11/02 08:49:57;;;;;;;29.38;26.23;;;;;;;27.61;22.28;93627.88;5015332;28;20053;-52
2021/11/02 08:52:24;;;;;;;30.33;27.23;;;;;;;27.79;22.32;93625.63;5015274;28;20050;-49
2021/11/02 08:54:54;;;;;;;29.60;26.23;;;;;;;27.52;22.81;93630.34;5014549;28;20045;-48
2021/11/02 08:57:22;;;;;;;27.65;24.80;;;;;;;27.38;22.88;93623.31;5015228;28;20056;-48
2021/11/02 08:59:51;;;;;;;27.63;24.75;;;;;;;27.03;23.27;93625.41;5013449;28;20058;-51
2021/11/02 09:02:27;;;;;;;24.58;22.02;;;;;;;27.09;22.94;93624.97;5005117;28;20069;-47
2021/11/02 09:05:02;;;;;;;26.52;23.73;;;;;;;26.76;23.52;93622.00;5008264;28;20049;-48
2021/11/02 09:07:29;;;;;;;28.52;25.52;;;;;;;27.09;23.43;93638.38;5014424;28;20054;-48
2021/11/02 09:09:59;;;;;;;28.05;24.85;;;;;;;27.32;23.12;93641.03;5014838;28;20046;-47
2021/11/02 09:12:31;;;;;;;26.63;23.65;;;;;;;27.11;23.32;93630.69;5015194;28;20073;-49
2021/11/02 09:15:03;;;;;;;27.20;24.15;;;;;;;26.87;23.74;93636.00;5014717;28;20042;-49
2021/11/02 09:17:34;;;;;;;26.88;23.83;;;;;;;27.16;23.33;93638.25;5014848;28;20554;-48
2021/11/02 09:20:03;;;;;;;28.45;25.45;;;;;;;27.44;23.01;93640.47;5013501;28;20057;-48
2021/11/02 09:22:31;;;;;;;27.63;24.73;;;;;;;27.30;23.53;93632.63;5013108;28;20065;-48
2021/11/02 09:25:00;;;;;;;30.67;27.40;;;;;;;27.03;23.58;93636.16;5014566;28;20051;-48
2021/11/02 09:27:27;;;;;;;30.88;26.52;;;;;;;27.37;23.19;93642.50;5014660;28;20457;-49
2021/11/02 09:29:59;;;;;;;28.60;25.63;;;;;;;27.13;23.66;93634.47;5013992;28;20381;-49
2021/11/02 09:32:27;;;;;;;27.80;24.98;;;;;;;27.20;23.62;93622.84;5014564;28;20062;-50
2021/11/02 09:34:54;;;;;;;28.00;25.08;;;;;;;26.86;24.00;93621.09;5013407;28;20053;-48
2021/11/02 09:37:35;;;;;;;29.45;26.40;;;;;;;26.84;23.91;93596.59;5014458;28;20045;-48
2021/11/02 09:40:28;;;;;;;30.10;27.00;;;;;;;27.29;23.21;93617.72;5014385;28;20050;-49
2021/11/02 09:43:31;;;;;;;31.63;27.92;;;;;;;27.43;23.47;93614.03;5014204;28;20054;-61
2021/11/02 09:46:15;;;;;;;30.85;27.75;;;;;;;27.38;23.44;93604.53;5014424;28;20069;-49
2021/11/02 09:48:53;;;;;;;26.88;24.08;;;;;;;26.92;24.08;93587.28;5014101;28;20053;-49
2021/11/02 09:51:38;;;;;;;22.25;19.92;;;;;;;26.91;23.78;93583.06;5014369;28;20049;-60
2021/11/02 09:54:43;;;;;;;21.17;18.90;;;;;;;26.95;24.09;93565.00;5014084;28;20079;-53
2021/11/02 09:57:13;;;;;;;19.77;17.77;;;;;;;26.96;23.86;93581.84;5013286;28;20045;-47
2021/11/02 09:59:48;;;;;;;32.65;23.25;;;;;;;26.98;23.88;93577.59;5013479;28;20049;-48
2021/11/02 10:02:40;;;;;;;30.20;22.20;;;;;;;27.17;23.86;93580.75;5013726;28;20058;-48
2021/11/02 10:05:40;;;;;;;22.10;18.10;;;;;;;27.26;23.33;93564.88;5014104;28;20049;-48
2021/11/02 10:08:34;;;;;;;22.52;16.60;;;;;;;26.99;23.66;93567.66;5012616;28;20053;-49
2021/11/02 10:11:23;;;;;;;21.90;17.48;;;;;;;27.22;23.50;93566.88;5009098;28;20045;-51
2021/11/02 10:14:10;;;;;;;17.30;15.52;;;;;;;27.23;23.85;93573.75;5013412;28;20053;-47
2021/11/02 10:17:00;;;;;;;17.73;15.85;;;;;;;27.00;23.80;93561.88;5013128;28;20046;-49
2021/11/02 10:19:47;;;;;;;17.83;16.02;;;;;;;27.02;23.84;93559.53;5014171;28;20049;-51
2021/11/02 10:22:36;;;;;;;20.10;16.02;;;;;;;26.58;24.47;93551.84;5013786;28;20046;-48
2021/11/02 10:25:15;;;;;;;21.95;19.75;;;;;;;26.93;24.33;93551.25;5013791;28;20048;-49
2021/11/02 10:28:06;;;;;;;23.00;20.60;;;;;;;27.42;23.66;93564.97;5013726;28;20045;-50
2021/11/02 10:30:41;;;;;;;23.83;21.33;;;;;;;27.77;23.55;93557.41;4994398;28;20057;-49
2021/11/02 10:33:19;;;;;;;26.73;22.83;;;;;;;27.56;23.76;93580.78;4996148;28;20042;-48
2021/11/02 10:35:55;;;;;;;25.95;23.02;;;;;;;27.37;23.71;93541.31;5012911;28;20080;-48
2021/11/02 10:38:28;;;;;;;26.88;23.60;;;;;;;27.32;24.07;93536.38;5013404;28;20053;-51
2021/11/02 10:40:59;;;;;;;25.42;22.83;;;;;;;27.39;23.67;93530.91;5012867;28;20049;-47
2021/11/02 10:43:33;;;;;;;24.88;22.20;;;;;;;27.41;23.71;93519.75;4996703;28;20057;-48
2021/11/02 10:46:05;;;;;;;27.58;24.67;;;;;;;27.33;23.80;93529.88;5013267;28;20376;-54
2021/11/02 10:48:48;;;;;;;26.10;23.42;;;;;;;27.59;23.14;93531.66;5005518;28;20056;-48
2021/11/02 10:51:35;;;;;;;25.08;22.52;;;;;;;27.77;23.28;93527.88;5013799;28;20053;-48
2021/11/02 10:54:43;;;;;;;28.33;20.77;;;;;;;29.23;21.88;93521.81;5021103;28;20045;-53
2021/11/02 10:57:15;;;;;;;24.98;22.38;;;;;;;29.30;21.59;93538.53;4997974;28;20034;-43
2021/11/02 10:59:46;;;;;;;27.63;24.83;;;;;;;28.36;22.59;93535.06;5012510;28;20066;-52
2021/11/02 11:02:27;;;;;;;29.08;26.05;;;;;;;28.06;23.48;93546.81;5013481;28;20061;-43
2021/11/02 11:04:59;;;;;;;28.98;26.08;;;;;;;27.80;23.56;93545.84;5002546;28;20072;-43
2021/11/02 11:07:36;;;;;;;28.77;25.77;;;;;;;27.89;23.73;93543.38;5003773;28;20057;-43
2021/11/02 11:10:05;;;;;;;25.50;22.83;;;;;;;28.00;23.43;93517.03;5013455;28;20045;-44
2021/11/02 11:12:44;;;;;;;22.48;20.17;;;;;;;27.59;24.03;93541.66;5013489;28;20045;-44
2021/11/02 11:15:11;;;;;;;21.80;19.50;;;;;;;27.93;23.55;93533.31;5013565;28;20052;-43
2021/11/02 11:17:46;;;;;;;22.92;20.52;;;;;;;27.71;23.50;93537.59;5013102;28;20077;-43
2021/11/02 11:20:15;;;;;;;22.05;19.88;;;;;;;27.39;24.14;93538.97;5012340;28;20064;-47
2021/11/02 11:22:44;;;;;;;23.73;21.33;;;;;;;27.36;23.99;93537.09;4997514;28;20054;-43
2021/11/02 11:25:20;;;;;;;22.25;19.95;;;;;;;29.22;22.31;93526.44;5017412;28;20464;-44
2021/11/02 11:27:57;;;;;;;20.85;18.65;;;;;;;29.71;21.45;93542.47;5007192;28;20057;-50
2021/11/02 11:30:30;;;;;;;20.83;18.40;;;;;;;29.84;21.33;93527.06;5025250;28;20042;-48
2021/11/02 11:32:58;;;;;;;22.15;18.45;;;;;;;29.06;22.17;93529.16;5036989;28;20470;-48
2021/11/02 11:35:26;;;;;;;20.20;18.00;;;;;;;28.96;22.28;93539.03;5036834;28;20057;-47
2021/11/02 11:37:54;;;;;;;20.13;17.83;;;;;;;28.96;22.35;93532.91;5022914;28;20054;-47
2021/11/02 11:40:24;;;;;;;20.92;17.52;;;;;;;29.02;22.39;93531.97;5010935;28;20356;-47
2021/11/02 11:42:54;;;;;;;20.60;18.40;;;;;;;28.99;22.34;93532.06;5004865;28;20038;-47
2021/11/02 11:45:26;;;;;;;21.92;19.77;;;;;;;29.39;21.73;93519.81;5005475;28;20056;-46
2021/11/02 11:48:09;;;;;;;19.92;17.92;;;;;;;29.05;22.18;93528.41;5006952;28;20045;-53
2021/11/02 11:50:42;;;;;;;19.38;17.48;;;;;;;29.32;22.15;93533.47;5006710;28;20344;-54
2021/11/02 11:53:14;;;;;;;18.95;17.05;;;;;;;29.24;22.19;93518.72;5009962;28;20058;-48
2021/11/02 11:55:45;;;;;;;19.85;17.88;;;;;;;29.15;22.35;93510.50;5006970;28;20440;-57
2021/11/02 11:58:22;;;;;;;19.40;17.40;;;;;;;29.52;22.05;93511.06;5007040;28;20476;-47
2021/11/02 12:01:09;;;;;;;19.88;17.88;;;;;;;29.15;22.67;93515.88;5006255;28;20054;-47
2021/11/02 12:03:59;;;;;;;19.35;17.33;;;;;;;29.71;21.81;93504.75;5006553;28;20050;-49
2021/11/02 12:06:31;;;;;;;17.20;15.50;;;;;;;29.30;22.40;93500.84;5005476;28;20057;-47
2021/11/02 12:09:17;;;;;;;;;;;;;;;29.40;22.24;93512.50;5006139;28;20056;-46
2021/11/02 12:11:44;;;;;;;17.83;16.00;;;;;;;29.14;22.55;93496.25;5006647;28;19921;-47
2021/11/02 12:14:18;;;;;;;17.95;16.10;;;;;;;29.58;22.20;93501.28;5005748;28;20480;-57
2021/11/02 12:16:47;;;;;;;17.88;15.95;;;;;;;29.68;21.85;93486.78;5004446;28;20042;-52
2021/11/02 12:19:21;;;;;;;17.67;15.88;;;;;;;29.14;22.55;93503.59;5008676;28;20061;-48
2021/11/02 12:22:04;;;;;;;19.33;17.13;;;;;;;29.31;22.41;93491.59;5034462;28;20052;-49
2021/11/02 12:24:35;;;;;;;17.75;15.18;;;;;;;29.40;22.08;93499.78;5016046;28;20050;-48
2021/11/02 12:27:18;;;;;;;15.57;14.00;;;;;;;29.55;22.10;93499.44;5015659;28;20053;-48
2021/11/02 12:29:47;;;;;;;12.75;11.52;;;;;;;29.38;22.18;93499.47;5013114;28;20070;-49
2021/11/02 12:32:17;;;;;;;12.43;11.23;;;;;;;29.44;22.10;93497.81;5015740;28;20049;-47
2021/11/02 12:35:05;;;;;;;13.13;11.73;;;;;;;29.36;22.34;93493.75;5015556;28;20053;-50
2021/11/02 12:37:35;;;;;;;11.18;9.98;;;;;;;29.02;22.68;93496.22;5023116;28;20456;-47
2021/11/02 12:40:21;;;;;;;11.48;10.27;;;;;;;29.31;22.76;93496.22;5015523;28;20053;-47
2021/11/02 12:42:48;;;;;;;10.77;9.65;;;;;;;28.70;23.34;93508.53;5015066;28;20038;-53
2021/11/02 12:45:18;;;;;;;10.20;9.20;;;;;;;29.05;22.64;93504.19;5014853;28;20058;-47
2021/11/02 12:47:47;;;;;;;10.60;9.48;;;;;;;28.92;22.51;93505.34;5015073;28;20476;-48
2021/11/02 12:50:16;;;;;;;11.73;10.52;;;;;;;29.98;21.61;93493.59;5014775;28;20057;-49
2021/11/02 12:52:45;;;;;;;11.07;9.80;;;;;;;30.02;21.32;93505.75;5014934;28;20053;-48
2021/11/02 12:55:19;;;;;;;13.20;11.80;;;;;;;29.51;22.06;93499.53;4995699;28;20050;-47
2021/11/02 12:57:48;;;;;;;13.32;12.00;;;;;;;29.57;21.71;93505.16;4997899;28;20039;-47
2021/11/02 13:00:27;;;;;;;14.10;12.60;;;;;;;29.19;22.20;93511.16;5012806;28;20054;-48
2021/11/02 13:03:02;;;;;;;13.00;11.70;;;;;;;29.81;21.41;93505.63;5015014;28;20483;-48
2021/11/02 13:05:31;;;;;;;12.43;11.13;;;;;;;29.86;21.33;93508.53;5015241;28;20053;-46
2021/11/02 13:08:12;;;;;;;13.23;11.95;;;;;;;29.56;21.64;93511.72;5014722;28;20056;-47
2021/11/02 13:10:41;;;;;;;13.90;12.48;;;;;;;29.75;21.64;93503.47;5013829;28;20448;-48
2021/11/02 13:13:14;;;;;;;13.85;12.32;;;;;;;29.42;22.14;93507.47;5014876;28;20053;-47
2021/11/02 13:15:56;;;;;;;14.02;12.48;;;;;;;29.45;22.01;93499.31;5015102;28;20053;-47
2021/11/02 13:18:33;;;;;;;13.88;12.48;;;;;;;29.47;22.24;93504.28;5014427;28;20042;-49
2021/11/02 13:21:21;;;;;;;11.45;10.32;;;;;;;29.91;21.97;93505.31;5014371;28;20049;-48
2021/11/02 13:23:54;;;;;;;13.05;11.75;;;;;;;29.74;22.17;93506.59;5014200;28;20364;-47
2021/11/02 13:26:23;;;;;;;13.18;11.88;;;;;;;29.77;22.02;93517.25;5014415;28;20049;-47
2021/11/02 13:28:50;;;;;;;12.60;11.35;;;;;;;29.62;22.22;93501.94;5013925;28;20073;-48
2021/11/02 13:31:34;;;;;;;11.95;10.85;;;;;;;29.87;21.68;93501.97;5014728;28;20471;-48
2021/11/02 13:34:04;;;;;;;12.40;11.10;;;;;;;29.87;21.92;93498.50;5013977;28;20050;-48
2021/11/02 13:36:32;;;;;;;12.50;11.30;;;;;;;30.28;21.42;93505.78;5014558;28;20050;-48
2021/11/02 13:39:10;;;;;;;12.43;10.40;;;;;;;31.21;20.83;93507.00;5014162;28;20057;-46
2021/11/02 13:41:40;;;;;;;11.55;10.25;;;;;;;31.55;19.80;93502.75;4999017;28;20057;-46
2021/11/02 13:44:09;;;;;;;11.38;10.27;;;;;;;31.66;19.93;93513.16;5009564;28;20050;-45
2021/11/02 13:46:45;;;;;;;10.95;9.95;;;;;;;31.51;19.83;93497.50;5005597;28;20050;-45
2021/11/02 13:49:13;;;;;;;10.55;9.55;;;;;;;31.55;19.91;93516.28;5007551;28;20041;-46
2021/11/02 13:51:40;;;;;;;10.88;8.95;;;;;;;31.72;20.04;93530.34;5013675;28;20049;-45
2021/11/02 13:54:09;;;;;;;10.68;9.57;;;;;;;31.32;19.80;93525.56;5013307;28;20045;-47
2021/11/02 13:56:41;;;;;;;10.60;9.40;;;;;;;29.82;21.69;93521.34;5021266;28;20057;-46
2021/11/02 13:59:09;;;;;;;10.50;9.50;;;;;;;29.49;22.22;93531.53;5008156;28;20049;-47
2021/11/02 14:01:40;;;;;;;9.63;8.63;;;;;;;29.23;22.27;93521.81;4996657;28;20053;-54
2021/11/02 14:04:12;;;;;;;11.02;9.68;;;;;;;29.15;22.55;93522.03;5007874;28;20057;-47
2021/11/02 14:06:47;;;;;;;10.75;9.65;;;;;;;29.43;22.20;93522.44;5001468;28;20441;-48
2021/11/02 14:09:16;;;;;;;9.88;8.88;;;;;;;28.98;22.58;93523.22;5006651;28;20065;-49
2021/11/02 14:11:44;;;;;;;10.73;9.63;;;;;;;29.39;21.96;93519.06;5014487;28;20041;-47
2021/11/02 14:14:40;;;;;;;9.80;8.90;;;;;;;29.21;21.97;93516.88;5013942;28;20052;-47
2021/11/02 14:17:21;;;;;;;10.73;8.85;;;;;;;29.14;22.02;93519.72;5000512;28;20049;-49
2021/11/02 14:19:49;;;;;;;10.40;8.63;;;;;;;28.48;23.29;93512.91;5013916;28;20052;-48
2021/11/02 14:22:45;;;;;;;10.30;9.30;;;;;;;28.07;23.65;93511.50;5013865;28;20050;-47
2021/11/02 14:25:39;;;;;;;10.77;9.38;;;;;;;28.45;23.18;93524.50;5009703;28;20053;-48
2021/11/02 14:28:10;;;;;;;10.23;9.18;;;;;;;28.96;22.77;93514.06;5028808;28;20049;-47
2021/11/02 14:30:43;;;;;;;9.35;8.40;;;;;;;30.10;21.90;93521.72;5011415;28;20050;-47
2021/11/02 14:33:12;;;;;;;9.15;8.02;;;;;;;31.16;20.39;93507.56;4996719;28;20053;-47
2021/11/02 14:35:39;;;;;;;9.95;8.95;;;;;;;31.19;20.27;93522.91;4994344;28;20046;-49
2021/11/02 14:38:16;;;;;;;12.05;9.82;;;;;;;31.43;20.04;93525.94;4996063;28;20352;-47
2021/11/02 14:40:48;;;;;;;11.80;8.70;;;;;;;31.49;20.16;93540.41;5013634;28;20057;-47
2021/11/02 14:43:16;;;;;;;12.60;8.82;;;;;;;31.53;19.83;93537.56;5013869;28;20049;-47
2021/11/02 14:45:53;;;;;;;10.02;9.00;;;;;;;31.43;19.98;93531.31;5013797;28;20365;-48
2021/11/02 14:48:28;;;;;;;10.30;9.15;;;;;;;31.57;19.62;93521.97;5012886;28;20046;-46
2021/11/02 14:51:00;;;;;;;10.32;9.32;;;;;;;30.75;20.56;93521.28;5013793;28;20046;-47
2021/11/02 14:53:45;;;;;;;;;;;;;;;30.13;21.24;93518.19;5016194;28;20042;-48
2021/11/02 14:56:15;;;;;;;10.32;9.32;;;;;;;30.69;20.77;93523.75;5017603;28;19913;-48
2021/11/02 14:58:43;;;;;;;11.05;9.15;;;;;;;30.75;20.77;93534.78;5016406;28;20049;-47
2021/11/02 15:01:20;;;;;;;10.63;9.63;;;;;;;29.73;21.84;93545.47;5017606;28;20380;-48
2021/11/02 15:03:52;;;;;;;9.90;9.00;;;;;;;29.16;22.68;93538.91;5015636;28;20061;-47
2021/11/02 15:06:30;;;;;;;10.52;9.50;;;;;;;30.73;20.98;93545.25;5020679;28;20371;-50
2021/11/02 15:08:58;;;;;;;9.82;8.80;;;;;;;31.21;20.37;93536.72;5022864;28;20042;-45
2021/11/02 15:11:25;;;;;;;10.80;9.70;;;;;;;31.19;20.41;93544.50;4997677;28;20046;-47
2021/11/02 15:13:58;;;;;;;9.88;8.90;;;;;;;31.46;19.79;93541.25;5007873;28;20045;-45
2021/11/02 15:16:26;;;;;;;10.07;9.13;;;;;;;30.78;20.72;93550.09;5017422;28;20045;-48
2021/11/02 15:19:01;;;;;;;10.18;8.73;;;;;;;31.48;19.93;93544.25;5017025;28;20049;-48
2021/11/02 15:21:37;;;;;;;11.60;9.20;;;;;;;32.08;19.07;93544.06;5004761;28;20043;-50
2021/11/02 15:24:30;;;;;;;13.38;9.48;;;;;;;30.25;20.85;93545.16;5008764;28;20056;-47
2021/11/02 15:27:06;;;;;;;12.63;10.68;;;;;;;29.74;21.30;93534.28;5016780;28;20041;-46
2021/11/02 15:29:38;;;;;;;10.70;9.60;;;;;;;29.52;21.64;93543.38;5009718;28;20049;-48
2021/11/02 15:32:06;;;;;;;11.23;10.00;;;;;;;29.46;21.67;93535.81;5013894;28;20053;-47
2021/11/02 15:34:36;;;;;;;11.75;10.15;;;;;;;29.23;21.96;93554.88;5011802;28;20380;-48
2021/11/02 15:37:12;;;;;;;12.52;11.23;;;;;;;28.99;22.27;93542.81;5016698;28;20424;-48
2021/11/02 15:39:40;;;;;;;12.05;9.77;;;;;;;28.66;22.39;93556.25;5013639;28;20050;-47
2021/11/02 15:42:35;;;;;;;10.95;8.88;;;;;;;28.97;22.10;93542.47;4997167;28;20051;-49
2021/11/02 15:45:07;;;;;;;11.07;9.32;;;;;;;28.72;22.44;93543.81;5015437;28;20041;-47
2021/11/02 15:47:43;;;;;;;13.80;10.13;;;;;;;28.60;22.48;93552.53;5016392;28;20050;-48
2021/11/02 15:50:14;;;;;;;16.08;10.32;;;;;;;28.73;22.11;93539.19;5016413;28;20375;-47
2021/11/02 15:52:42;;;;;;;11.00;8.70;;;;;;;28.48;22.74;93545.16;5015912;28;20475;-47
2021/11/02 15:55:22;;;;;;;11.02;9.48;;;;;;;28.54;22.45;93546.16;5015533;28;20045;-47
2021/11/02 15:57:54;;;;;;;12.10;9.63;;;;;;;28.49;22.45;93538.59;5016377;28;20057;-47
2021/11/02 16:00:32;;;;;;;11.05;9.90;;;;;;;28.85;22.04;93544.66;5015724;28;20495;-47
2021/11/02 16:03:00;;;;;;;12.52;10.95;;;;;;;28.47;22.15;93546.34;5016154;28;20058;-47
2021/11/02 16:05:29;;;;;;;12.02;10.82;;;;;;;28.32;22.76;93553.19;5014338;28;20057;-47
2021/11/02 16:07:59;;;;;;;14.80;13.25;;;;;;;28.47;22.28;93560.53;4996569;28;20046;-57
2021/11/02 16:10:31;;;;;;;14.82;13.40;;;;;;;28.32;22.52;93561.25;5014536;28;20396;-48
2021/11/02 16:13:04;;;;;;;16.38;14.68;;;;;;;28.51;22.05;93588.09;5015807;28;20050;-48
2021/11/02 16:15:34;;;;;;;18.63;16.73;;;;;;;28.24;22.32;93577.56;5016024;28;20049;-49
2021/11/02 16:18:06;;;;;;;20.52;18.33;;;;;;;28.39;22.40;93588.00;4998637;28;20042;-46
2021/11/02 16:20:37;;;;;;;;;;;;;;;28.17;22.75;93585.75;5016088;28;20045;-50
2021/11/02 16:23:08;;;;;;;28.92;25.92;;;;;;;28.40;22.13;93587.56;5015093;28;19948;-47
2021/11/02 16:25:40;;;;;;;31.50;28.33;;;;;;;28.00;22.78;93591.47;5016043;28;20387;-47
2021/11/02 16:28:13;;;;;;;34.17;29.95;;;;;;;27.96;22.79;93596.94;5015331;28;20053;-46
2021/11/02 16:30:41;;;;;;;35.70;31.92;;;;;;;27.75;23.23;93602.72;5014956;28;20053;-47
2021/11/02 16:33:10;;;;;;;33.47;30.05;;;;;;;27.84;22.64;93600.97;4997498;28;20043;-47
2021/11/02 16:35:44;;;;;;;31.98;28.67;;;;;;;28.14;22.31;93608.06;5015623;28;20479;-46
2021/11/02 16:38:33;;;;;;;30.92;27.73;;;;;;;27.80;23.11;93596.84;5015565;28;20053;-46
2021/11/02 16:41:20;;;;;;;30.73;27.63;;;;;;;27.70;22.79;93589.78;5015386;28;20060;-47
2021/11/02 16:43:51;;;;;;;31.02;28.02;;;;;;;27.88;22.61;93603.63;5015251;28;20046;-47
2021/11/02 16:46:27;;;;;;;36.30;32.57;;;;;;;27.47;23.00;93591.31;5015351;28;20042;-47